createdAt,value
2023-03-10T00:03:20.906Z,78.90
2023-03-10T00:08:29.195Z,78.20
2023-03-10T00:13:36.648Z,82.30
2023-03-10T00:18:44.100Z,85.40
2023-03-10T00:23:52.206Z,83.00
2023-03-10T00:29:00.095Z,83.90
2023-03-10T00:34:07.997Z,82.40
2023-03-10T00:39:15.562Z,87.90
2023-03-10T00:44:23.487Z,99.20
2023-03-10T00:49:31.161Z,97.10
2023-03-10T00:54:42.850Z,106.30
2023-03-10T00:59:53.842Z,106.50
2023-03-10T01:05:01.572Z,116.40
2023-03-10T01:10:10.768Z,112.90
2023-03-10T01:15:18.240Z,113.80
2023-03-10T01:20:25.762Z,110.60
2023-03-10T01:25:33.194Z,110.90
2023-03-10T01:30:41.637Z,117.20
2023-03-10T01:35:48.831Z,137.80
2023-03-10T01:40:57.216Z,119.20
2023-03-10T01:46:35.405Z,123.00
2023-03-10T01:51:45.404Z,109.90
2023-03-10T01:56:54.350Z,119.70
2023-03-10T02:02:20.988Z,88.00
2023-03-10T02:07:31.742Z,104.60
2023-03-10T02:12:39.121Z,104.60
2023-03-10T02:17:47.153Z,82.40
2023-03-10T02:22:54.790Z,78.70
2023-03-10T02:28:02.855Z,108.50
2023-03-10T02:33:15.199Z,104.70
2023-03-10T02:38:23.062Z,100.10
2023-03-10T02:43:33.390Z,102.70
2023-03-10T02:48:42.856Z,100.30
2023-03-10T02:53:50.078Z,101.30
2023-03-10T03:04:04.297Z,109.60
2023-03-10T03:09:12.076Z,85.10
2023-03-10T03:14:19.707Z,96.90
2023-03-10T03:19:29.918Z,87.60
2023-03-10T03:24:37.971Z,91.60
2023-03-10T03:29:45.660Z,91.40
2023-03-10T03:35:24.288Z,82.60
2023-03-10T03:40:36.882Z,73.80
2023-03-10T03:45:44.813Z,85.20
2023-03-10T03:50:52.464Z,79.00
2023-03-10T03:56:00.121Z,87.10
2023-03-10T04:01:08.264Z,95.10
2023-03-10T04:06:15.833Z,76.20
2023-03-10T04:11:23.879Z,78.40
2023-03-10T04:16:31.342Z,70.30
2023-03-10T04:21:39.121Z,80.10
2023-03-10T04:26:47.101Z,75.30
2023-03-10T04:32:04.712Z,87.30
2023-03-10T04:37:12.552Z,84.20
2023-03-10T04:47:25.839Z,75.50
2023-03-10T04:52:33.469Z,77.70
2023-03-10T04:57:40.853Z,79.40
2023-03-10T05:02:48.191Z,75.30
2023-03-10T05:13:01.631Z,78.90
2023-03-10T05:18:10.792Z,72.80
2023-03-10T05:23:18.085Z,75.60
2023-03-10T05:28:25.705Z,80.90
2023-03-10T05:33:33.810Z,93.10
2023-03-10T05:38:41.440Z,85.30
2023-03-10T05:43:48.942Z,82.90
2023-03-10T05:48:56.442Z,78.40
2023-03-10T05:54:05.594Z,83.80
2023-03-10T05:59:13.102Z,98.20
2023-03-10T06:04:20.588Z,91.80
2023-03-10T06:09:28.849Z,73.70
2023-03-10T06:14:36.653Z,77.10
2023-03-10T06:19:43.866Z,73.80
2023-03-10T06:29:56.703Z,81.40
2023-03-10T06:40:13.308Z,71.80
2023-03-10T06:45:20.564Z,85.90
2023-03-10T06:55:33.221Z,90.90
2023-03-10T07:00:41.238Z,74.30
2023-03-10T07:16:20.287Z,60.10
2023-03-10T07:21:28.558Z,54.60
2023-03-10T07:26:38.187Z,50.70
2023-03-10T07:31:47.521Z,42.70
2023-03-10T07:36:54.829Z,33.70
2023-03-10T07:42:02.205Z,22.10
2023-03-10T07:47:09.992Z,17.40
2023-03-10T07:52:19.681Z,11.40
2023-03-10T07:57:26.958Z,10.70
2023-03-10T08:02:34.187Z,9.90
2023-03-10T08:07:42.149Z,8.90
2023-03-10T08:12:49.486Z,7.20
2023-03-10T08:17:57.273Z,8.00
2023-03-10T08:23:05.343Z,26.00
2023-03-10T08:28:12.483Z,29.90
2023-03-10T08:33:19.798Z,6.80
2023-03-10T08:38:27.110Z,5.10
2023-03-10T08:43:34.398Z,7.30
2023-03-10T08:48:43.016Z,5.50
2023-03-10T08:53:52.590Z,5.20
2023-03-10T08:59:01.244Z,6.60
2023-03-10T09:04:10.630Z,5.00
2023-03-10T09:09:18.402Z,6.00
2023-03-10T09:14:26.144Z,5.40
2023-03-10T09:19:35.075Z,4.80
2023-03-10T09:24:42.374Z,8.20
2023-03-10T09:29:49.589Z,4.50
2023-03-10T09:34:57.020Z,4.00
2023-03-10T09:40:06.384Z,4.60
2023-03-10T09:45:36.892Z,4.90
2023-03-10T09:50:48.012Z,5.10
2023-03-10T09:55:55.450Z,4.10
2023-03-10T10:01:05.154Z,4.60
2023-03-10T10:06:19.642Z,8.70
2023-03-10T10:11:27.077Z,4.40
2023-03-10T10:16:43.877Z,4.80
2023-03-10T10:27:00.515Z,4.60
2023-03-10T10:32:13.388Z,6.60
2023-03-10T10:37:31.229Z,4.80
2023-03-10T10:42:38.498Z,3.80
2023-03-10T10:47:52.089Z,5.20
2023-03-10T10:53:24.759Z,5.20
2023-03-10T10:58:35.116Z,6.90
2023-03-10T11:03:46.379Z,7.60
2023-03-10T11:09:03.945Z,4.00
2023-03-10T11:14:22.446Z,4.60
2023-03-10T11:19:38.378Z,4.70
2023-03-10T11:24:53.020Z,3.80
2023-03-10T11:30:08.223Z,5.20
2023-03-10T11:35:27.702Z,6.80
2023-03-10T11:40:44.147Z,7.80
2023-03-10T11:45:55.088Z,7.90
2023-03-10T11:51:07.364Z,5.10
2023-03-10T11:56:16.705Z,6.20
2023-03-10T12:01:30.962Z,6.20
2023-03-10T12:06:46.632Z,5.30
2023-03-10T12:11:55.786Z,5.90
2023-03-10T12:17:05.553Z,9.90
2023-03-10T12:22:37.286Z,6.20
2023-03-10T12:28:14.405Z,7.20
2023-03-10T12:38:50.004Z,5.10
2023-03-10T12:43:59.204Z,6.70
2023-03-10T12:49:19.374Z,7.10
2023-03-10T12:54:44.117Z,7.00
2023-03-10T13:00:01.715Z,6.70
2023-03-10T13:05:23.521Z,7.00
2023-03-10T13:10:34.630Z,6.40
2023-03-10T13:15:42.238Z,5.20
2023-03-10T13:20:50.193Z,7.80
2023-03-10T13:25:59.958Z,6.70
2023-03-10T13:31:25.819Z,4.80
2023-03-10T13:36:38.535Z,5.20
2023-03-10T13:51:39.492Z,6.50
2023-03-10T14:06:34.787Z,9.90
2023-03-10T14:11:46.541Z,6.50
2023-03-10T14:16:57.913Z,6.20
2023-03-10T14:22:05.500Z,8.60
2023-03-10T14:27:13.335Z,7.50
2023-03-10T14:32:22.077Z,7.60
2023-03-10T14:37:29.653Z,7.30
2023-03-10T14:42:37.600Z,5.70
2023-03-10T14:47:45.319Z,11.30
2023-03-10T14:52:52.846Z,7.90
2023-03-10T14:58:03.711Z,5.30
2023-03-10T15:03:12.759Z,7.50
2023-03-10T15:08:20.360Z,8.50
2023-03-10T15:13:28.035Z,6.30
2023-03-10T15:18:35.593Z,8.00
2023-03-10T15:23:43.070Z,7.70
2023-03-10T15:28:50.613Z,6.20
2023-03-10T15:33:58.780Z,7.70
2023-03-10T15:42:02.795Z,9.00
2023-03-10T15:47:10.653Z,7.10
2023-03-10T15:52:18.113Z,9.80
2023-03-10T15:57:25.437Z,8.10
2023-03-10T16:02:32.709Z,7.10
2023-03-10T16:07:40.463Z,6.80
2023-03-10T16:15:18.639Z,7.00
2023-03-10T16:20:26.518Z,7.50
2023-03-10T16:25:34.393Z,10.80
2023-03-10T16:30:41.881Z,12.40
2023-03-10T16:35:49.860Z,12.00
2023-03-10T16:40:58.440Z,10.20
2023-03-10T16:46:11.534Z,9.80
2023-03-10T16:51:26.894Z,10.90
2023-03-10T16:56:38.008Z,9.70
2023-03-10T17:01:45.668Z,9.80
2023-03-10T17:06:53.225Z,11.30
2023-03-10T17:12:03.017Z,9.90
2023-03-10T17:17:10.258Z,11.20
2023-03-10T17:22:17.725Z,11.50
2023-03-10T17:27:25.627Z,12.90
2023-03-10T17:32:33.003Z,10.20
2023-03-10T17:37:41.471Z,10.90
2023-03-10T17:42:48.681Z,7.70
2023-03-10T17:47:56.268Z,5.70
2023-03-10T17:53:03.578Z,8.00
2023-03-10T17:58:11.948Z,5.20
2023-03-10T18:03:20.413Z,3.90
2023-03-10T18:08:27.987Z,3.60
2023-03-10T18:13:35.674Z,5.90
2023-03-10T18:18:43.714Z,4.30
2023-03-10T18:23:51.671Z,5.80
2023-03-10T18:28:59.522Z,7.00
2023-03-10T18:34:07.176Z,8.90
2023-03-10T18:39:15.381Z,7.90
2023-03-10T18:44:22.700Z,9.50
2023-03-10T18:49:30.068Z,8.70
2023-03-10T18:54:37.239Z,10.30
2023-03-10T18:59:44.886Z,10.50
2023-03-10T19:04:52.325Z,10.60
2023-03-10T19:10:00.750Z,7.50
2023-03-10T19:15:12.260Z,8.90
2023-03-10T19:20:19.886Z,8.70
2023-03-10T19:25:27.895Z,8.50
2023-03-10T19:30:35.621Z,8.00
2023-03-10T19:35:43.022Z,6.70
2023-03-10T19:40:51.010Z,9.20
2023-03-10T19:46:04.187Z,8.00
2023-03-10T19:51:22.652Z,9.60
2023-03-10T19:56:30.557Z,11.20
2023-03-10T20:01:39.195Z,5.70
2023-03-10T20:06:46.925Z,9.10
2023-03-10T20:11:54.306Z,8.90
2023-03-10T20:17:02.230Z,10.30
2023-03-10T20:22:09.944Z,6.80
2023-03-10T20:27:18.064Z,10.00
2023-03-10T20:32:25.785Z,10.90
2023-03-10T20:37:34.110Z,10.90
2023-03-10T20:42:42.667Z,12.40
2023-03-10T20:47:50.559Z,12.40
2023-03-10T20:52:57.747Z,14.00
2023-03-10T20:58:05.166Z,14.70
2023-03-10T21:03:12.415Z,13.50
2023-03-10T21:08:20.169Z,11.30
2023-03-10T21:13:27.711Z,14.00
2023-03-10T21:18:35.188Z,12.90
2023-03-10T21:23:43.347Z,13.10
2023-03-10T21:28:51.249Z,14.30
2023-03-10T21:33:58.678Z,11.40
2023-03-10T21:39:09.244Z,12.70
2023-03-10T21:44:16.897Z,12.40
2023-03-10T21:49:24.562Z,13.60
2023-03-10T21:54:32.397Z,11.90
2023-03-10T21:59:40.038Z,15.60
2023-03-10T22:04:47.245Z,18.10
2023-03-10T22:09:54.739Z,18.30
2023-03-10T22:15:02.951Z,17.10
2023-03-10T22:20:14.132Z,14.50
2023-03-10T22:25:22.174Z,15.80
2023-03-10T22:30:30.358Z,16.00
2023-03-10T22:35:38.460Z,17.20
2023-03-10T22:40:46.116Z,22.20
2023-03-10T22:45:57.216Z,20.40
2023-03-10T22:51:09.383Z,27.80
2023-03-10T22:56:16.940Z,28.40
2023-03-10T23:01:24.449Z,32.50
2023-03-10T23:06:34.372Z,22.50
2023-03-10T23:11:41.827Z,23.30
2023-03-10T23:16:49.023Z,34.90
2023-03-10T23:21:56.224Z,41.50
2023-03-10T23:27:03.637Z,28.50
2023-03-10T23:32:11.692Z,26.90
2023-03-10T23:37:19.772Z,28.10
2023-03-10T23:42:27.402Z,27.20
2023-03-10T23:47:36.737Z,20.90
2023-03-10T23:52:44.755Z,18.90
2023-03-10T23:57:52.943Z,22.30
